createdAt,value
2019-01-13T00:00:42.228Z,2.57
2019-01-13T00:03:14.690Z,1.50
2019-01-13T00:05:46.999Z,1.90
2019-01-13T00:08:19.356Z,2.47
2019-01-13T00:10:51.668Z,2.00
2019-01-13T00:13:23.931Z,2.13
2019-01-13T00:15:56.353Z,2.80
2019-01-13T00:18:28.510Z,2.23
2019-01-13T00:21:01.013Z,2.80
2019-01-13T00:23:33.448Z,2.43
2019-01-13T00:26:05.954Z,2.30
2019-01-13T00:28:38.420Z,2.53
2019-01-13T00:31:10.922Z,2.47
2019-01-13T00:33:43.210Z,2.17
2019-01-13T00:36:15.615Z,3.97
2019-01-13T00:38:47.871Z,2.67
2019-01-13T00:41:20.084Z,5.07
2019-01-13T00:43:52.445Z,2.63
2019-01-13T00:46:24.748Z,2.30
2019-01-13T00:48:57.035Z,2.53
2019-01-13T00:51:29.390Z,2.47
2019-01-13T00:54:01.556Z,3.00
2019-01-13T00:56:33.874Z,3.23
2019-01-13T00:59:06.335Z,2.97
2019-01-13T01:01:38.722Z,3.70
2019-01-13T01:04:11.080Z,3.00
2019-01-13T01:06:43.495Z,2.47
2019-01-13T01:09:15.956Z,2.67
2019-01-13T01:11:49.085Z,2.90
2019-01-13T01:14:21.626Z,3.17
2019-01-13T01:16:53.924Z,2.90
2019-01-13T01:19:26.384Z,2.73
2019-01-13T01:21:58.692Z,2.40
2019-01-13T01:24:30.858Z,3.10
2019-01-13T01:27:03.255Z,2.60
2019-01-13T01:29:35.405Z,2.00
2019-01-13T01:32:07.879Z,2.40
2019-01-13T01:34:40.025Z,1.80
2019-01-13T01:37:12.530Z,1.87
2019-01-13T01:39:44.687Z,1.80
2019-01-13T01:42:16.968Z,1.70
2019-01-13T01:44:49.221Z,1.60
2019-01-13T01:47:21.431Z,1.40
2019-01-13T01:49:53.696Z,1.50
2019-01-13T01:52:25.946Z,1.27
2019-01-13T01:54:58.212Z,1.67
2019-01-13T01:57:30.621Z,1.50
2019-01-13T02:00:02.882Z,1.30
2019-01-13T02:02:35.292Z,1.60
2019-01-13T02:05:08.397Z,1.67
2019-01-13T02:07:41.014Z,1.70
2019-01-13T02:10:19.169Z,2.10
2019-01-13T02:12:52.690Z,1.90
2019-01-13T02:15:29.464Z,2.23
2019-01-13T02:18:01.878Z,1.70
2019-01-13T02:20:34.053Z,1.73
2019-01-13T02:23:06.475Z,2.57
2019-01-13T02:25:39.225Z,2.70
2019-01-13T02:28:11.641Z,3.10
2019-01-13T02:30:49.015Z,2.80
2019-01-13T02:33:18.090Z,3.10
2019-01-13T02:35:50.243Z,3.67
2019-01-13T02:38:22.661Z,4.00
2019-01-13T02:40:54.917Z,3.00
2019-01-13T02:43:27.224Z,3.80
2019-01-13T02:45:59.484Z,3.30
2019-01-13T02:48:31.684Z,4.60
2019-01-13T02:51:04.096Z,3.80
2019-01-13T02:53:36.400Z,4.33
2019-01-13T02:56:08.665Z,3.50
2019-01-13T02:58:40.959Z,4.47
2019-01-13T03:01:13.416Z,4.20
2019-01-13T03:03:45.901Z,3.53
2019-01-13T03:06:18.077Z,3.17
2019-01-13T03:08:50.387Z,4.40
2019-01-13T03:11:22.751Z,4.23
2019-01-13T03:13:54.957Z,3.17
2019-01-13T03:16:27.217Z,3.37
2019-01-13T03:18:59.524Z,3.50
2019-01-13T03:21:31.779Z,3.70
2019-01-13T03:24:04.087Z,3.30
2019-01-13T03:26:36.352Z,3.87
2019-01-13T03:29:08.662Z,3.93
2019-01-13T03:31:40.929Z,3.27
2019-01-13T03:34:13.230Z,3.63
2019-01-13T03:36:45.687Z,2.60
2019-01-13T03:39:17.994Z,3.53
2019-01-13T03:41:50.248Z,3.90
2019-01-13T03:44:22.659Z,2.90
2019-01-13T03:46:54.924Z,3.97
2019-01-13T03:49:27.347Z,3.80
2019-01-13T03:51:59.611Z,4.33
2019-01-13T03:54:31.968Z,3.73
2019-01-13T03:57:04.420Z,3.50
2019-01-13T03:59:36.829Z,3.67
2019-01-13T04:02:09.093Z,3.30
2019-01-13T04:04:41.596Z,4.07
2019-01-13T04:07:13.863Z,3.13
2019-01-13T04:09:46.162Z,3.40
2019-01-13T04:12:18.534Z,3.70
2019-01-13T04:14:50.945Z,2.73
2019-01-13T04:17:23.512Z,2.50
2019-01-13T04:19:55.914Z,3.37
2019-01-13T04:22:28.073Z,2.93
2019-01-13T04:25:00.349Z,3.03
2019-01-13T04:27:32.604Z,3.37
2019-01-13T04:30:05.862Z,2.90
2019-01-13T04:32:38.011Z,3.07
2019-01-13T04:35:10.767Z,2.83
2019-01-13T04:37:42.921Z,2.77
2019-01-13T04:40:15.430Z,3.13
2019-01-13T04:42:47.793Z,2.67
2019-01-13T04:45:20.199Z,3.00
2019-01-13T04:47:52.350Z,2.70
2019-01-13T04:50:24.656Z,3.43
2019-01-13T04:52:57.116Z,3.37
2019-01-13T04:55:29.565Z,3.17
2019-01-13T04:58:02.032Z,3.60
2019-01-13T05:00:34.453Z,3.30
2019-01-13T05:03:06.821Z,3.60
2019-01-13T05:05:39.127Z,3.43
2019-01-13T05:08:11.495Z,3.47
2019-01-13T05:10:43.800Z,3.13
2019-01-13T05:13:15.966Z,3.83
2019-01-13T05:15:48.179Z,3.63
2019-01-13T05:18:20.334Z,3.93
2019-01-13T05:20:52.712Z,3.23
2019-01-13T05:23:24.872Z,3.23
2019-01-13T05:25:57.183Z,4.10
2019-01-13T05:28:29.337Z,3.33
2019-01-13T05:31:01.552Z,3.97
2019-01-13T05:33:33.717Z,3.20
2019-01-13T05:36:06.229Z,4.10
2019-01-13T05:38:38.389Z,3.20
2019-01-13T05:41:10.710Z,3.83
2019-01-13T05:43:42.967Z,4.37
2019-01-13T05:46:15.379Z,4.20
2019-01-13T05:48:47.623Z,3.57
2019-01-13T05:51:19.830Z,4.03
2019-01-13T05:53:52.247Z,3.43
2019-01-13T05:56:24.569Z,3.40
2019-01-13T05:58:56.728Z,4.47
2019-01-13T06:01:29.036Z,4.63
2019-01-13T06:04:01.190Z,4.70
2019-01-13T06:06:33.601Z,4.10
2019-01-13T06:09:08.264Z,5.40
2019-01-13T06:11:40.779Z,5.33
2019-01-13T06:14:13.246Z,4.73
2019-01-13T06:16:45.550Z,4.70
2019-01-13T06:19:17.711Z,3.83
2019-01-13T06:21:49.928Z,4.87
2019-01-13T06:24:22.093Z,5.30
2019-01-13T06:26:54.403Z,4.57
2019-01-13T06:29:26.650Z,4.07
2019-01-13T06:31:58.928Z,4.90
2019-01-13T06:34:31.089Z,5.37
2019-01-13T06:37:03.390Z,6.70
2019-01-13T06:39:35.640Z,4.90
2019-01-13T06:42:08.046Z,6.67
2019-01-13T06:44:40.203Z,7.10
2019-01-13T06:47:12.519Z,6.87
2019-01-13T06:49:44.780Z,6.53
2019-01-13T06:52:17.095Z,6.97
2019-01-13T06:54:49.302Z,5.50
2019-01-13T06:57:21.516Z,8.20
2019-01-13T06:59:53.789Z,7.47
2019-01-13T07:02:26.103Z,8.17
2019-01-13T07:04:58.281Z,7.70
2019-01-13T07:07:30.491Z,6.80
2019-01-13T07:10:02.656Z,6.90
2019-01-13T07:12:34.862Z,8.03
2019-01-13T07:15:09.999Z,9.33
2019-01-13T07:17:42.400Z,8.23
2019-01-13T07:20:18.035Z,11.07
2019-01-13T07:22:50.801Z,13.07
2019-01-13T07:25:23.373Z,13.37
2019-01-13T07:27:55.701Z,13.00
2019-01-13T07:30:28.679Z,12.10
2019-01-13T07:33:00.870Z,9.47
2019-01-13T07:35:33.312Z,11.40
2019-01-13T07:38:05.512Z,9.57
2019-01-13T07:40:37.859Z,10.07
2019-01-13T07:43:10.148Z,8.93
2019-01-13T07:45:42.364Z,9.40
2019-01-13T07:48:14.741Z,9.00
2019-01-13T07:50:46.961Z,9.40
2019-01-13T07:53:19.326Z,9.73
2019-01-13T07:55:51.687Z,8.30
2019-01-13T07:58:23.963Z,8.07
2019-01-13T08:00:56.324Z,8.23
2019-01-13T08:03:28.714Z,6.17
2019-01-13T08:06:01.063Z,10.30
2019-01-13T08:08:33.266Z,8.50
2019-01-13T08:11:05.569Z,8.97
2019-01-13T08:13:37.729Z,9.93
2019-01-13T08:16:10.144Z,8.07
2019-01-13T08:18:42.406Z,7.90
2019-01-13T08:21:14.827Z,8.40
2019-01-13T08:23:47.219Z,10.07
2019-01-13T08:26:19.679Z,10.27
2019-01-13T08:28:51.971Z,9.27
2019-01-13T08:31:24.514Z,11.27
2019-01-13T08:33:56.830Z,10.30
2019-01-13T08:36:29.197Z,12.10
2019-01-13T08:39:01.510Z,12.70
2019-01-13T08:41:33.970Z,10.23
2019-01-13T08:44:06.698Z,11.17
2019-01-13T08:46:39.185Z,12.73
2019-01-13T08:49:11.591Z,12.27
2019-01-13T08:51:43.952Z,10.57
2019-01-13T08:54:16.480Z,11.33
2019-01-13T08:56:49.000Z,14.23
2019-01-13T08:59:21.311Z,17.80
2019-01-13T09:01:53.682Z,16.63
2019-01-13T09:04:26.007Z,14.13
2019-01-13T09:06:58.570Z,13.73
2019-01-13T09:09:30.895Z,14.63
2019-01-13T09:12:03.359Z,16.03
2019-01-13T09:14:35.900Z,13.57
2019-01-13T09:17:08.370Z,13.03
2019-01-13T09:19:40.782Z,12.43
2019-01-13T09:22:13.366Z,12.00
2019-01-13T09:24:45.563Z,8.97
2019-01-13T09:27:17.882Z,9.10
2019-01-13T09:29:50.184Z,12.20
2019-01-13T09:32:22.558Z,10.50
2019-01-13T09:34:54.741Z,9.37
2019-01-13T09:37:26.952Z,8.87
2019-01-13T09:39:59.125Z,8.90
2019-01-13T09:42:31.515Z,8.13
2019-01-13T09:45:04.077Z,7.63
2019-01-13T09:47:36.392Z,6.83
2019-01-13T09:50:10.944Z,7.63
2019-01-13T09:52:43.269Z,7.67
2019-01-13T09:55:17.616Z,12.13
2019-01-13T09:57:50.052Z,9.30
2019-01-13T10:00:34.868Z,9.73
2019-01-13T10:03:09.018Z,7.50
2019-01-13T10:05:41.557Z,7.67
2019-01-13T10:08:14.059Z,7.97
2019-01-13T10:10:46.231Z,6.70
2019-01-13T10:13:18.636Z,6.80
2019-01-13T10:15:50.991Z,6.33
2019-01-13T10:18:23.195Z,5.47
2019-01-13T10:20:56.158Z,5.27
2019-01-13T10:23:28.531Z,5.20
2019-01-13T10:26:00.987Z,4.87
2019-01-13T10:28:33.286Z,3.63
2019-01-13T10:31:05.748Z,5.50
2019-01-13T10:33:37.950Z,4.40
2019-01-13T10:36:10.459Z,4.00
2019-01-13T10:38:42.867Z,3.83
2019-01-13T10:41:15.198Z,2.97
2019-01-13T10:43:47.407Z,3.63
2019-01-13T10:46:19.664Z,3.37
2019-01-13T10:48:51.858Z,2.60
2019-01-13T10:51:24.123Z,2.57
2019-01-13T10:53:56.513Z,3.73
2019-01-13T10:56:28.814Z,3.13
2019-01-13T10:59:01.024Z,2.13
2019-01-13T11:01:33.296Z,4.10
2019-01-13T11:04:06.648Z,2.57
2019-01-13T11:06:40.258Z,1.90
2019-01-13T11:09:14.599Z,2.40
2019-01-13T11:11:47.511Z,1.30
2019-01-13T11:14:20.131Z,1.97
2019-01-13T11:16:52.841Z,1.97
2019-01-13T11:19:25.238Z,1.50
2019-01-13T11:21:57.606Z,1.87
2019-01-13T11:24:29.931Z,1.50
2019-01-13T11:27:02.080Z,0.97
2019-01-13T11:29:34.527Z,0.70
2019-01-13T11:32:06.691Z,0.90
2019-01-13T11:34:38.992Z,0.77
2019-01-13T11:37:11.355Z,0.87
2019-01-13T11:39:43.752Z,1.00
2019-01-13T11:42:16.012Z,0.90
2019-01-13T11:44:48.322Z,2.77
2019-01-13T11:47:20.581Z,3.80
2019-01-13T11:49:52.996Z,2.20
2019-01-13T11:52:25.154Z,6.73
2019-01-13T11:54:57.549Z,17.23
2019-01-13T11:57:29.833Z,8.23
2019-01-13T12:00:02.036Z,9.17
2019-01-13T12:02:34.204Z,6.90
2019-01-13T12:05:07.457Z,14.83
2019-01-13T12:07:40.024Z,2.60
2019-01-13T12:10:15.131Z,2.10
2019-01-13T12:12:47.601Z,0.97
2019-01-13T12:15:20.668Z,2.47
2019-01-13T12:17:53.132Z,2.20
2019-01-13T12:20:26.523Z,4.33
2019-01-13T12:22:58.734Z,2.87
2019-01-13T12:25:31.136Z,1.60
2019-01-13T12:28:03.594Z,2.73
2019-01-13T12:30:36.329Z,0.63
2019-01-13T12:33:08.703Z,1.60
2019-01-13T12:35:41.120Z,1.07
2019-01-13T12:38:13.476Z,0.90
2019-01-13T12:40:46.745Z,1.23
2019-01-13T12:43:19.349Z,0.90
2019-01-13T12:45:54.878Z,0.60
2019-01-13T12:48:27.548Z,1.03
2019-01-13T12:51:00.321Z,1.13
2019-01-13T12:53:32.577Z,0.80
2019-01-13T12:56:04.959Z,0.70
2019-01-13T12:58:37.221Z,0.80
2019-01-13T13:01:09.702Z,1.03
2019-01-13T13:03:42.061Z,0.70
2019-01-13T13:06:14.587Z,1.00
2019-01-13T13:08:47.029Z,1.00
2019-01-13T13:11:19.235Z,1.03
2019-01-13T13:13:51.435Z,0.90
2019-01-13T13:16:23.845Z,1.00
2019-01-13T13:18:56.141Z,1.30
2019-01-13T13:21:28.477Z,1.50
2019-01-13T13:24:00.845Z,1.20
2019-01-13T13:26:33.322Z,0.80
2019-01-13T13:29:05.825Z,0.80
2019-01-13T13:31:38.033Z,1.00
2019-01-13T13:34:10.279Z,1.10
2019-01-13T13:36:42.795Z,0.80
2019-01-13T13:39:15.161Z,0.97
2019-01-13T13:41:47.376Z,1.00
2019-01-13T13:44:19.529Z,1.23
2019-01-13T13:46:51.726Z,3.10
2019-01-13T13:49:23.935Z,1.90
2019-01-13T13:51:56.355Z,1.97
2019-01-13T13:54:28.757Z,2.40
2019-01-13T13:57:01.217Z,2.33
2019-01-13T13:59:33.523Z,1.63
2019-01-13T14:02:06.050Z,1.40
2019-01-13T14:04:38.257Z,1.80
2019-01-13T14:07:10.671Z,1.27
2019-01-13T14:09:42.876Z,2.33
2019-01-13T14:12:15.295Z,1.40
2019-01-13T14:14:47.495Z,1.47
2019-01-13T14:17:19.705Z,2.30
2019-01-13T14:19:52.012Z,2.20
2019-01-13T14:22:24.326Z,2.27
2019-01-13T14:24:56.629Z,2.70
2019-01-13T14:27:28.846Z,2.23
2019-01-13T14:30:01.051Z,2.37
2019-01-13T14:32:33.367Z,2.20
2019-01-13T14:35:06.494Z,2.30
2019-01-13T14:37:38.903Z,1.80
2019-01-13T14:40:18.088Z,2.30
2019-01-13T14:42:50.913Z,2.13
2019-01-13T14:45:26.062Z,2.13
2019-01-13T14:47:58.581Z,3.07
2019-01-13T14:50:34.979Z,3.27
2019-01-13T14:53:09.107Z,2.60
2019-01-13T14:55:41.364Z,1.77
2019-01-13T14:58:14.944Z,2.10
2019-01-13T15:00:47.378Z,3.20
2019-01-13T15:03:19.584Z,2.60
2019-01-13T15:05:52.027Z,1.93
2019-01-13T15:08:24.445Z,1.80
2019-01-13T15:10:56.653Z,2.10
2019-01-13T15:13:28.863Z,1.90
2019-01-13T15:16:05.894Z,1.63
2019-01-13T15:18:38.096Z,2.03
2019-01-13T15:21:10.601Z,1.80
2019-01-13T15:23:42.816Z,2.70
2019-01-13T15:26:15.139Z,1.80
2019-01-13T15:28:47.352Z,1.10
2019-01-13T15:31:19.665Z,1.00
2019-01-13T15:33:51.981Z,1.33
2019-01-13T15:36:24.771Z,0.93
2019-01-13T15:38:56.999Z,0.90
2019-01-13T15:41:29.304Z,0.80
2019-01-13T15:44:01.522Z,1.00
2019-01-13T15:46:33.723Z,0.80
2019-01-13T15:49:05.945Z,0.60
2019-01-13T15:51:38.355Z,0.80
2019-01-13T15:54:10.571Z,0.90
2019-01-13T15:56:42.924Z,1.20
2019-01-13T15:59:15.237Z,0.90
2019-01-13T16:01:47.751Z,0.83
2019-01-13T16:04:19.956Z,1.20
2019-01-13T16:06:52.221Z,0.80
2019-01-13T16:09:24.430Z,1.00
2019-01-13T16:11:56.746Z,0.77
2019-01-13T16:14:29.061Z,0.90
2019-01-13T16:17:01.363Z,0.80
2019-01-13T16:19:33.576Z,0.90
2019-01-13T16:22:06.253Z,0.90
2019-01-13T16:24:38.467Z,1.00
2019-01-13T16:27:10.866Z,0.70
2019-01-13T16:29:43.149Z,0.83
2019-01-13T16:32:15.444Z,0.70
2019-01-13T16:34:47.657Z,1.00
2019-01-13T16:37:19.964Z,1.63
2019-01-13T16:39:52.184Z,1.23
2019-01-13T16:42:24.396Z,1.50
2019-01-13T16:44:56.607Z,1.30
2019-01-13T16:47:28.930Z,4.27
2019-01-13T16:50:01.146Z,1.17
2019-01-13T16:52:33.656Z,1.43
2019-01-13T16:55:07.283Z,1.40
2019-01-13T16:57:39.897Z,1.20
2019-01-13T17:00:17.449Z,0.93
2019-01-13T17:02:49.931Z,1.40
2019-01-13T17:05:23.715Z,1.30
2019-01-13T17:07:56.132Z,1.33
2019-01-13T17:10:28.819Z,1.57
2019-01-13T17:13:01.127Z,0.90
2019-01-13T17:15:38.223Z,1.13
2019-01-13T17:18:11.339Z,0.70
2019-01-13T17:20:43.751Z,1.10
2019-01-13T17:23:16.162Z,0.97
2019-01-13T17:25:49.898Z,1.30
2019-01-13T17:28:22.111Z,0.80
2019-01-13T17:30:54.523Z,1.00
2019-01-13T17:33:26.934Z,0.97
2019-01-13T17:35:59.238Z,0.83
2019-01-13T17:38:31.544Z,1.03
2019-01-13T17:41:03.868Z,0.80
2019-01-13T17:43:36.276Z,1.13
2019-01-13T17:46:08.590Z,0.80
2019-01-13T17:48:40.803Z,0.90
2019-01-13T17:51:13.198Z,0.70
2019-01-13T17:53:45.512Z,0.80
2019-01-13T17:56:17.973Z,0.70
2019-01-13T17:58:50.181Z,0.80
2019-01-13T18:01:47.621Z,0.77
2019-01-13T18:04:19.862Z,1.30
2019-01-13T18:06:52.178Z,4.00
2019-01-13T18:09:24.488Z,1.10
2019-01-13T18:11:56.705Z,0.90
2019-01-13T18:14:29.004Z,0.73
2019-01-13T18:17:06.403Z,0.80
2019-01-13T18:19:35.415Z,0.73
2019-01-13T18:22:07.828Z,1.03
2019-01-13T18:24:40.048Z,1.50
2019-01-13T18:27:12.351Z,3.93
2019-01-13T18:29:44.564Z,1.87
2019-01-13T18:32:16.869Z,8.77
2019-01-13T18:34:50.475Z,1.10
2019-01-13T18:37:22.968Z,0.73
2019-01-13T18:39:55.272Z,0.90
2019-01-13T18:42:27.484Z,0.83
2019-01-13T18:44:59.692Z,0.90
2019-01-13T18:47:31.910Z,0.70
2019-01-13T18:50:04.697Z,0.53
2019-01-13T18:52:37.111Z,0.70
2019-01-13T18:55:10.241Z,0.83
2019-01-13T18:57:42.660Z,1.00
2019-01-13T19:00:19.498Z,0.70
2019-01-13T19:02:54.340Z,0.80
2019-01-13T19:05:26.992Z,0.70
2019-01-13T19:07:59.203Z,0.63
2019-01-13T19:10:47.266Z,0.50
2019-01-13T19:14:21.827Z,0.50
2019-01-13T19:17:15.461Z,2.33
2019-01-13T19:20:12.214Z,4.17
2019-01-13T19:22:47.851Z,5.30
2019-01-13T19:25:42.783Z,2.60
2019-01-13T19:28:15.151Z,3.00
2019-01-13T19:30:47.452Z,2.83
2019-01-13T19:33:19.821Z,1.90
2019-01-13T19:35:52.399Z,1.30
2019-01-13T19:38:24.555Z,1.30
2019-01-13T19:40:56.867Z,1.40
2019-01-13T19:43:29.237Z,2.00
2019-01-13T19:46:01.547Z,1.50
2019-01-13T19:48:33.802Z,1.73
2019-01-13T19:51:06.211Z,1.93
2019-01-13T19:53:38.475Z,1.57
2019-01-13T19:56:11.033Z,1.03
2019-01-13T19:58:43.380Z,1.47
2019-01-13T20:01:15.599Z,1.23
2019-01-13T20:03:47.963Z,1.80
2019-01-13T20:06:20.467Z,1.00
2019-01-13T20:08:52.719Z,0.80
2019-01-13T20:11:25.111Z,0.90
2019-01-13T20:13:57.396Z,0.90
2019-01-13T20:16:29.920Z,0.97
2019-01-13T20:19:02.188Z,0.70
2019-01-13T20:21:34.396Z,1.33
2019-01-13T20:24:06.772Z,1.23
2019-01-13T20:26:39.180Z,2.63
2019-01-13T20:29:11.449Z,1.80
2019-01-13T20:31:43.669Z,1.20
2019-01-13T20:34:15.929Z,1.13
2019-01-13T20:36:48.142Z,1.10
2019-01-13T20:39:20.399Z,0.80
2019-01-13T20:41:52.814Z,1.40
2019-01-13T20:48:17.617Z,1.40
2019-01-13T20:50:49.784Z,2.60
2019-01-13T20:53:22.098Z,2.20
2019-01-13T20:55:54.512Z,1.43
2019-01-13T20:58:26.823Z,1.37
2019-01-13T21:00:59.087Z,1.20
2019-01-13T21:03:31.494Z,1.50
2019-01-13T21:06:03.936Z,1.60
2019-01-13T21:08:36.251Z,1.50
2019-01-13T21:11:08.607Z,1.27
2019-01-13T21:13:40.915Z,1.70
2019-01-13T21:16:13.232Z,1.10
2019-01-13T21:18:45.532Z,1.00
2019-01-13T21:21:18.089Z,1.30
2019-01-13T21:23:50.299Z,1.20
2019-01-13T21:26:22.552Z,1.20
2019-01-13T21:28:54.753Z,1.27
2019-01-13T21:31:27.122Z,1.50
2019-01-13T21:33:59.518Z,1.40
2019-01-13T21:36:31.791Z,1.37
2019-01-13T21:39:05.656Z,1.27
2019-01-13T21:41:37.924Z,1.30
2019-01-13T21:44:10.335Z,1.33
2019-01-13T21:46:42.600Z,1.60
2019-01-13T21:49:14.807Z,1.10
2019-01-13T21:51:46.980Z,1.27
2019-01-13T21:54:19.385Z,0.90
2019-01-13T21:56:51.601Z,0.93
2019-01-13T21:59:23.905Z,0.80
2019-01-13T22:01:56.271Z,1.00
2019-01-13T22:04:28.582Z,1.00
2019-01-13T22:07:00.854Z,0.70
2019-01-13T22:09:33.159Z,0.80
2019-01-13T22:12:05.634Z,0.70
2019-01-13T22:14:37.845Z,0.60
2019-01-13T22:17:10.105Z,0.50
2019-01-13T22:19:42.321Z,0.40
2019-01-13T22:22:14.587Z,0.50
2019-01-13T22:24:46.892Z,0.70
2019-01-13T22:27:19.058Z,0.77
2019-01-13T22:29:51.269Z,0.40
2019-01-13T22:32:23.630Z,0.50
2019-01-13T22:34:55.946Z,0.47
2019-01-13T22:37:28.305Z,0.67
2019-01-13T22:40:00.611Z,0.60
2019-01-13T22:42:32.783Z,0.50
2019-01-13T22:45:06.230Z,0.67
2019-01-13T22:47:38.599Z,0.40
2019-01-13T22:50:13.172Z,0.67
2019-01-13T22:52:45.743Z,0.70
2019-01-13T22:55:18.200Z,0.43
2019-01-13T22:57:50.455Z,0.40
2019-01-13T23:01:02.451Z,0.73
2019-01-13T23:03:34.871Z,0.40
2019-01-13T23:06:07.658Z,0.50
2019-01-13T23:08:39.861Z,0.60
2019-01-13T23:11:12.283Z,0.60
2019-01-13T23:13:44.603Z,0.60
2019-01-13T23:16:17.006Z,0.47
2019-01-13T23:18:49.411Z,0.87
2019-01-13T23:21:21.813Z,0.50
2019-01-13T23:23:54.135Z,0.53
2019-01-13T23:26:26.361Z,0.50
2019-01-13T23:28:59.045Z,0.50
2019-01-13T23:31:31.560Z,0.50
2019-01-13T23:34:03.773Z,0.50
2019-01-13T23:36:35.980Z,0.40
2019-01-13T23:39:10.279Z,0.80
2019-01-13T23:41:42.597Z,1.00
2019-01-13T23:44:14.918Z,0.50
2019-01-13T23:46:47.225Z,0.60
2019-01-13T23:49:19.710Z,0.50
2019-01-13T23:51:51.916Z,0.60
2019-01-13T23:54:24.267Z,0.60
2019-01-13T23:56:56.582Z,0.57
2019-01-13T23:59:29.179Z,0.60
